KMQB

Macomb Municipal Airport

Macomb, Illinois, USA
METAR KMQB 172115Z AUTO 27011KT 10SM SCT013 BKN024 OVC032 02/00 A3001 RMK AO2 T00170003
Observed Flight Rules
Feb-17 @ 21:15 UTC (23 minutes ago) Marginal Visual Flight Rules
Wind Visibility Clouds
270° at 11 knots 10 miles
  • Scattered at 1,300' AGL
  • Broken at 2,400' AGL
  • Overcast at 3,200' AGL
Temperatures Readings
Current 2°C / 36°F
Dewpoint 0°C / 32°F
Humidity 87%
Altimeter 30.01" Hg
Pressure 1016 hPa
Elevation 215
METAR KMQB 172115Z AUTO 27011KT 10SM SCT013 BKN024 OVC032 02/00 A3001 RMK AO2 T00170003
Observed Flight Rules
Feb-17 @ 21:15 UTC
(23 minutes ago)
MVFR
Wind Visibility
270° at 11 knots 10 miles
Clouds
  • Scattered at 1,300' AGL
  • Broken at 2,400' AGL
  • Overcast at 3,200' AGL
Temperature Dewpoint
2°C / 36°F 0°C / 32°F
Humidity Altimeter Pressure
87% 30.01" Hg 1016 hPa